Terminal Aerodrome Forecast
Issued by NWS Amarillo, TX

Home | Current Version | Previous Version | Text Only | Print | Product List | Glossary On
Versions: 1 2 3 4 5 6 7 8 9 10 11 12 13 14 15 16
547
FTUS44 KAMA 252320
TAFDHT
TAF
KDHT 252320Z 2600/2624 VRB05KT P6SM SKC
     FM261300 34017G27KT P6SM SCT200
     FM261600 01028G38KT P6SM BKN200=

USA.gov is the U.S. government's official web portal to all federal, state and local government web resources and services.